sensor_id;sensor_type;location;lat;lon;timestamp;temperature;humidity
14739;DHT22;7461;52.440;13.540;2022-10-16T00:02:14;14.50;99.90
14739;DHT22;7461;52.440;13.540;2022-10-16T00:04:41;14.50;99.90
14739;DHT22;7461;52.440;13.540;2022-10-16T00:07:08;14.50;99.90
14739;DHT22;7461;52.440;13.540;2022-10-16T00:09:36;14.50;99.90
14739;DHT22;7461;52.440;13.540;2022-10-16T00:12:03;14.60;99.90
14739;DHT22;7461;52.440;13.540;2022-10-16T00:14:32;14.60;99.90
14739;DHT22;7461;52.440;13.540;2022-10-16T00:16:59;14.50;99.90
14739;DHT22;7461;52.440;13.540;2022-10-16T00:19:25;14.60;99.90
14739;DHT22;7461;52.440;13.540;2022-10-16T00:21:52;14.60;99.90
14739;DHT22;7461;52.440;13.540;2022-10-16T00:24:19;14.70;99.90
14739;DHT22;7461;52.440;13.540;2022-10-16T00:26:49;14.70;99.90
14739;DHT22;7461;52.440;13.540;2022-10-16T00:29:16;14.70;99.90
14739;DHT22;7461;52.440;13.540;2022-10-16T00:31:43;14.70;99.90
14739;DHT22;7461;52.440;13.540;2022-10-16T00:34:10;14.80;99.90
14739;DHT22;7461;52.440;13.540;2022-10-16T00:36:37;14.80;99.90
14739;DHT22;7461;52.440;13.540;2022-10-16T00:39:04;14.80;99.90
14739;DHT22;7461;52.440;13.540;2022-10-16T00:41:31;14.80;99.90
14739;DHT22;7461;52.440;13.540;2022-10-16T00:44:02;14.80;99.90
14739;DHT22;7461;52.440;13.540;2022-10-16T00:46:31;14.90;99.90
14739;DHT22;7461;52.440;13.540;2022-10-16T00:49:02;14.90;99.90
14739;DHT22;7461;52.440;13.540;2022-10-16T00:51:33;14.90;99.90
14739;DHT22;7461;52.440;13.540;2022-10-16T00:54:01;14.90;99.90
14739;DHT22;7461;52.440;13.540;2022-10-16T00:56:28;14.90;99.90
14739;DHT22;7461;52.440;13.540;2022-10-16T00:58:55;14.90;99.90
14739;DHT22;7461;52.440;13.540;2022-10-16T01:01:24;15.00;99.90
14739;DHT22;7461;52.440;13.540;2022-10-16T01:03:51;15.00;99.90
14739;DHT22;7461;52.440;13.540;2022-10-16T01:06:34;15.00;99.90
14739;DHT22;7461;52.440;13.540;2022-10-16T01:09:13;15.00;99.90
14739;DHT22;7461;52.440;13.540;2022-10-16T01:11:49;15.00;99.90
14739;DHT22;7461;52.440;13.540;2022-10-16T01:14:23;15.00;99.90
14739;DHT22;7461;52.440;13.540;2022-10-16T01:16:58;15.00;99.90
14739;DHT22;7461;52.440;13.540;2022-10-16T01:19:40;15.00;99.90
14739;DHT22;7461;52.440;13.540;2022-10-16T01:22:11;14.90;99.90
14739;DHT22;7461;52.440;13.540;2022-10-16T01:24:39;15.00;99.90
14739;DHT22;7461;52.440;13.540;2022-10-16T01:27:11;15.00;99.90
14739;DHT22;7461;52.440;13.540;2022-10-16T01:29:42;15.00;99.90
14739;DHT22;7461;52.440;13.540;2022-10-16T01:32:15;15.00;99.90
14739;DHT22;7461;52.440;13.540;2022-10-16T01:34:48;15.00;99.90
14739;DHT22;7461;52.440;13.540;2022-10-16T01:37:23;15.00;99.90
14739;DHT22;7461;52.440;13.540;2022-10-16T01:39:53;15.00;99.90
14739;DHT22;7461;52.440;13.540;2022-10-16T01:42:28;15.00;99.90
14739;DHT22;7461;52.440;13.540;2022-10-16T01:44:57;15.00;99.90
14739;DHT22;7461;52.440;13.540;2022-10-16T01:47:26;15.00;99.90
14739;DHT22;7461;52.440;13.540;2022-10-16T01:49:54;15.00;99.90
14739;DHT22;7461;52.440;13.540;2022-10-16T01:52:25;15.00;99.90
14739;DHT22;7461;52.440;13.540;2022-10-16T01:54:55;15.00;99.90
14739;DHT22;7461;52.440;13.540;2022-10-16T01:57:25;15.00;99.90
14739;DHT22;7461;52.440;13.540;2022-10-16T01:59:55;15.00;99.90
14739;DHT22;7461;52.440;13.540;2022-10-16T02:02:23;15.00;99.90
14739;DHT22;7461;52.440;13.540;2022-10-16T02:04:57;15.10;99.90
14739;DHT22;7461;52.440;13.540;2022-10-16T02:07:24;15.10;99.90
14739;DHT22;7461;52.440;13.540;2022-10-16T02:09:51;15.10;99.90
14739;DHT22;7461;52.440;13.540;2022-10-16T02:12:22;15.10;99.90
14739;DHT22;7461;52.440;13.540;2022-10-16T02:14:52;15.10;99.90
14739;DHT22;7461;52.440;13.540;2022-10-16T02:17:19;15.10;99.90
14739;DHT22;7461;52.440;13.540;2022-10-16T02:19:48;15.20;99.90
14739;DHT22;7461;52.440;13.540;2022-10-16T02:22:21;15.20;99.90
14739;DHT22;7461;52.440;13.540;2022-10-16T02:24:53;15.20;99.90
14739;DHT22;7461;52.440;13.540;2022-10-16T02:27:24;15.20;99.90
14739;DHT22;7461;52.440;13.540;2022-10-16T02:29:58;15.20;99.90
14739;DHT22;7461;52.440;13.540;2022-10-16T02:32:30;15.20;99.90
14739;DHT22;7461;52.440;13.540;2022-10-16T02:34:59;15.20;99.90
14739;DHT22;7461;52.440;13.540;2022-10-16T02:37:28;15.20;99.90
14739;DHT22;7461;52.440;13.540;2022-10-16T02:39:57;15.20;99.90
14739;DHT22;7461;52.440;13.540;2022-10-16T02:42:29;15.20;99.90
14739;DHT22;7461;52.440;13.540;2022-10-16T02:44:58;15.30;99.90
14739;DHT22;7461;52.440;13.540;2022-10-16T02:47:25;15.30;99.90
14739;DHT22;7461;52.440;13.540;2022-10-16T02:49:53;15.30;99.90
14739;DHT22;7461;52.440;13.540;2022-10-16T02:52:20;15.30;99.90
14739;DHT22;7461;52.440;13.540;2022-10-16T02:54:47;15.30;99.90
14739;DHT22;7461;52.440;13.540;2022-10-16T02:57:13;15.30;99.90
14739;DHT22;7461;52.440;13.540;2022-10-16T02:59:41;15.30;99.90
14739;DHT22;7461;52.440;13.540;2022-10-16T03:02:09;15.30;99.90
14739;DHT22;7461;52.440;13.540;2022-10-16T03:04:37;15.30;99.90
14739;DHT22;7461;52.440;13.540;2022-10-16T03:07:04;15.30;99.90
14739;DHT22;7461;52.440;13.540;2022-10-16T03:09:31;15.30;99.90
14739;DHT22;7461;52.440;13.540;2022-10-16T03:11:57;15.30;99.90
14739;DHT22;7461;52.440;13.540;2022-10-16T03:14:24;15.30;99.90
14739;DHT22;7461;52.440;13.540;2022-10-16T03:16:51;15.30;99.90
14739;DHT22;7461;52.440;13.540;2022-10-16T03:19:20;15.30;99.90
14739;DHT22;7461;52.440;13.540;2022-10-16T03:21:46;15.30;99.90
14739;DHT22;7461;52.440;13.540;2022-10-16T03:24:13;15.30;99.90
14739;DHT22;7461;52.440;13.540;2022-10-16T03:26:40;15.30;99.90
14739;DHT22;7461;52.440;13.540;2022-10-16T03:29:07;15.30;99.90
14739;DHT22;7461;52.440;13.540;2022-10-16T03:31:34;15.20;99.90
14739;DHT22;7461;52.440;13.540;2022-10-16T03:34:01;15.20;99.90
14739;DHT22;7461;52.440;13.540;2022-10-16T03:36:29;15.10;99.90
14739;DHT22;7461;52.440;13.540;2022-10-16T03:38:56;15.20;99.90
14739;DHT22;7461;52.440;13.540;2022-10-16T03:41:23;15.10;99.90
14739;DHT22;7461;52.440;13.540;2022-10-16T03:43:50;15.10;99.90
14739;DHT22;7461;52.440;13.540;2022-10-16T03:46:17;15.00;99.90
14739;DHT22;7461;52.440;13.540;2022-10-16T03:48:44;15.10;99.90
14739;DHT22;7461;52.440;13.540;2022-10-16T03:51:10;15.00;99.90
14739;DHT22;7461;52.440;13.540;2022-10-16T03:53:39;15.00;99.90
14739;DHT22;7461;52.440;13.540;2022-10-16T03:56:06;15.00;99.90
14739;DHT22;7461;52.440;13.540;2022-10-16T03:58:33;15.00;99.90
14739;DHT22;7461;52.440;13.540;2022-10-16T04:01:00;15.00;99.90
14739;DHT22;7461;52.440;13.540;2022-10-16T04:03:26;15.00;99.90
14739;DHT22;7461;52.440;13.540;2022-10-16T04:05:53;15.00;99.90
14739;DHT22;7461;52.440;13.540;2022-10-16T04:08:20;14.90;99.90
14739;DHT22;7461;52.440;13.540;2022-10-16T04:10:49;15.00;99.90
14739;DHT22;7461;52.440;13.540;2022-10-16T04:13:16;15.00;99.90
14739;DHT22;7461;52.440;13.540;2022-10-16T04:15:44;15.00;99.90
14739;DHT22;7461;52.440;13.540;2022-10-16T04:18:11;14.90;99.90
14739;DHT22;7461;52.440;13.540;2022-10-16T04:20:38;14.90;99.90
14739;DHT22;7461;52.440;13.540;2022-10-16T04:23:05;14.90;99.90
14739;DHT22;7461;52.440;13.540;2022-10-16T04:25:32;14.90;99.90
14739;DHT22;7461;52.440;13.540;2022-10-16T04:28:00;14.90;99.90
14739;DHT22;7461;52.440;13.540;2022-10-16T04:30:27;14.90;99.90
14739;DHT22;7461;52.440;13.540;2022-10-16T04:32:54;14.80;99.90
14739;DHT22;7461;52.440;13.540;2022-10-16T04:35:21;14.80;99.90
14739;DHT22;7461;52.440;13.540;2022-10-16T04:37:48;14.70;99.90
14739;DHT22;7461;52.440;13.540;2022-10-16T04:40:16;14.70;99.90
14739;DHT22;7461;52.440;13.540;2022-10-16T04:42:42;14.70;99.90
14739;DHT22;7461;52.440;13.540;2022-10-16T04:45:11;14.70;99.90
14739;DHT22;7461;52.440;13.540;2022-10-16T04:47:37;14.60;99.90
14739;DHT22;7461;52.440;13.540;2022-10-16T04:50:05;14.60;99.90
14739;DHT22;7461;52.440;13.540;2022-10-16T04:52:32;14.60;99.90
14739;DHT22;7461;52.440;13.540;2022-10-16T04:54:59;14.60;99.90
14739;DHT22;7461;52.440;13.540;2022-10-16T04:57:28;14.60;99.90
14739;DHT22;7461;52.440;13.540;2022-10-16T04:59:55;14.50;99.90
14739;DHT22;7461;52.440;13.540;2022-10-16T05:02:23;14.50;99.90
14739;DHT22;7461;52.440;13.540;2022-10-16T05:04:50;14.50;99.90
14739;DHT22;7461;52.440;13.540;2022-10-16T05:07:17;14.50;99.90
14739;DHT22;7461;52.440;13.540;2022-10-16T05:09:43;14.50;99.90
14739;DHT22;7461;52.440;13.540;2022-10-16T05:12:10;14.50;99.90
14739;DHT22;7461;52.440;13.540;2022-10-16T05:14:37;14.50;99.90
14739;DHT22;7461;52.440;13.540;2022-10-16T05:17:04;14.40;99.90
14739;DHT22;7461;52.440;13.540;2022-10-16T05:19:32;14.40;99.90
14739;DHT22;7461;52.440;13.540;2022-10-16T05:21:59;14.40;99.90
14739;DHT22;7461;52.440;13.540;2022-10-16T05:24:26;14.40;99.90
14739;DHT22;7461;52.440;13.540;2022-10-16T05:26:53;14.40;99.90
14739;DHT22;7461;52.440;13.540;2022-10-16T05:29:28;14.40;99.90
14739;DHT22;7461;52.440;13.540;2022-10-16T05:32:09;14.30;99.90
14739;DHT22;7461;52.440;13.540;2022-10-16T05:34:43;14.30;99.90
14739;DHT22;7461;52.440;13.540;2022-10-16T05:37:10;14.30;99.90
14739;DHT22;7461;52.440;13.540;2022-10-16T05:39:38;14.30;99.90
14739;DHT22;7461;52.440;13.540;2022-10-16T05:42:05;14.20;99.90
14739;DHT22;7461;52.440;13.540;2022-10-16T05:44:32;14.20;99.90
14739;DHT22;7461;52.440;13.540;2022-10-16T05:46:59;14.20;99.90
14739;DHT22;7461;52.440;13.540;2022-10-16T05:49:26;14.20;99.90
14739;DHT22;7461;52.440;13.540;2022-10-16T05:51:54;14.30;99.90
14739;DHT22;7461;52.440;13.540;2022-10-16T05:54:21;14.20;99.90
14739;DHT22;7461;52.440;13.540;2022-10-16T05:56:49;14.30;99.90
14739;DHT22;7461;52.440;13.540;2022-10-16T05:59:16;14.20;99.90
14739;DHT22;7461;52.440;13.540;2022-10-16T06:01:43;14.20;99.90
14739;DHT22;7461;52.440;13.540;2022-10-16T06:04:10;14.30;99.90
14739;DHT22;7461;52.440;13.540;2022-10-16T06:06:37;14.30;99.90
14739;DHT22;7461;52.440;13.540;2022-10-16T06:09:05;14.30;99.90
14739;DHT22;7461;52.440;13.540;2022-10-16T06:11:33;14.30;99.90
14739;DHT22;7461;52.440;13.540;2022-10-16T06:14:01;14.30;99.90
14739;DHT22;7461;52.440;13.540;2022-10-16T06:16:32;14.30;99.90
14739;DHT22;7461;52.440;13.540;2022-10-16T06:18:59;14.40;99.90
14739;DHT22;7461;52.440;13.540;2022-10-16T06:21:28;14.40;99.90
14739;DHT22;7461;52.440;13.540;2022-10-16T06:23:55;14.40;99.90
14739;DHT22;7461;52.440;13.540;2022-10-16T06:26:25;14.40;99.90
14739;DHT22;7461;52.440;13.540;2022-10-16T06:28:54;14.50;99.90
14739;DHT22;7461;52.440;13.540;2022-10-16T06:31:22;14.50;99.90
14739;DHT22;7461;52.440;13.540;2022-10-16T06:33:53;14.50;99.90
14739;DHT22;7461;52.440;13.540;2022-10-16T06:36:20;14.50;99.90
14739;DHT22;7461;52.440;13.540;2022-10-16T06:38:47;14.60;99.90
14739;DHT22;7461;52.440;13.540;2022-10-16T06:41:15;14.60;99.90
14739;DHT22;7461;52.440;13.540;2022-10-16T06:43:44;14.70;99.90
14739;DHT22;7461;52.440;13.540;2022-10-16T06:46:12;14.70;99.90
14739;DHT22;7461;52.440;13.540;2022-10-16T06:48:40;14.70;99.90
14739;DHT22;7461;52.440;13.540;2022-10-16T06:51:10;14.70;99.90
14739;DHT22;7461;52.440;13.540;2022-10-16T06:53:38;14.70;99.90
14739;DHT22;7461;52.440;13.540;2022-10-16T06:56:09;14.80;99.90
14739;DHT22;7461;52.440;13.540;2022-10-16T06:58:36;14.80;99.90
14739;DHT22;7461;52.440;13.540;2022-10-16T07:01:05;14.80;99.90
14739;DHT22;7461;52.440;13.540;2022-10-16T07:03:32;14.80;99.90
14739;DHT22;7461;52.440;13.540;2022-10-16T07:06:03;14.90;99.90
14739;DHT22;7461;52.440;13.540;2022-10-16T07:08:31;14.90;99.90
14739;DHT22;7461;52.440;13.540;2022-10-16T07:10:59;14.90;99.90
14739;DHT22;7461;52.440;13.540;2022-10-16T07:13:26;15.00;99.90
14739;DHT22;7461;52.440;13.540;2022-10-16T07:15:53;15.00;99.90
14739;DHT22;7461;52.440;13.540;2022-10-16T07:18:22;15.00;99.90
14739;DHT22;7461;52.440;13.540;2022-10-16T07:20:52;15.10;99.90
14739;DHT22;7461;52.440;13.540;2022-10-16T07:23:19;15.20;99.90
14739;DHT22;7461;52.440;13.540;2022-10-16T07:25:45;15.30;99.90
14739;DHT22;7461;52.440;13.540;2022-10-16T07:28:19;15.40;99.90
14739;DHT22;7461;52.440;13.540;2022-10-16T07:30:51;15.50;99.90
14739;DHT22;7461;52.440;13.540;2022-10-16T07:33:18;15.60;99.90
14739;DHT22;7461;52.440;13.540;2022-10-16T07:35:50;15.70;99.90
14739;DHT22;7461;52.440;13.540;2022-10-16T07:38:18;15.80;99.90
14739;DHT22;7461;52.440;13.540;2022-10-16T07:40:48;15.90;99.90
14739;DHT22;7461;52.440;13.540;2022-10-16T07:43:15;16.00;99.90
14739;DHT22;7461;52.440;13.540;2022-10-16T07:45:51;16.10;99.90
14739;DHT22;7461;52.440;13.540;2022-10-16T07:48:20;16.20;99.90
14739;DHT22;7461;52.440;13.540;2022-10-16T07:50:52;16.20;99.90
14739;DHT22;7461;52.440;13.540;2022-10-16T07:53:19;16.20;99.90
14739;DHT22;7461;52.440;13.540;2022-10-16T07:55:48;16.20;99.90
14739;DHT22;7461;52.440;13.540;2022-10-16T07:58:17;16.30;99.90
14739;DHT22;7461;52.440;13.540;2022-10-16T08:00:49;16.30;99.90
14739;DHT22;7461;52.440;13.540;2022-10-16T08:03:18;16.30;99.90
14739;DHT22;7461;52.440;13.540;2022-10-16T08:05:45;16.30;99.90
14739;DHT22;7461;52.440;13.540;2022-10-16T08:08:15;16.30;99.90
14739;DHT22;7461;52.440;13.540;2022-10-16T08:10:50;16.30;99.90
14739;DHT22;7461;52.440;13.540;2022-10-16T08:13:17;16.40;99.90
14739;DHT22;7461;52.440;13.540;2022-10-16T08:15:46;16.40;99.90
14739;DHT22;7461;52.440;13.540;2022-10-16T08:18:16;16.40;99.90
14739;DHT22;7461;52.440;13.540;2022-10-16T08:20:46;16.40;99.90
14739;DHT22;7461;52.440;13.540;2022-10-16T08:23:15;16.50;99.90
14739;DHT22;7461;52.440;13.540;2022-10-16T08:25:42;16.50;99.90
14739;DHT22;7461;52.440;13.540;2022-10-16T08:28:10;16.60;99.90
14739;DHT22;7461;52.440;13.540;2022-10-16T08:30:37;16.60;99.90
14739;DHT22;7461;52.440;13.540;2022-10-16T08:33:04;16.70;99.90
14739;DHT22;7461;52.440;13.540;2022-10-16T08:35:31;16.70;99.90
14739;DHT22;7461;52.440;13.540;2022-10-16T08:37:58;16.80;99.90
14739;DHT22;7461;52.440;13.540;2022-10-16T08:40:29;16.80;99.90
14739;DHT22;7461;52.440;13.540;2022-10-16T08:43:09;16.90;99.90
14739;DHT22;7461;52.440;13.540;2022-10-16T08:45:43;17.00;99.90
14739;DHT22;7461;52.440;13.540;2022-10-16T08:48:20;17.10;99.90
14739;DHT22;7461;52.440;13.540;2022-10-16T08:50:51;17.10;99.90
14739;DHT22;7461;52.440;13.540;2022-10-16T08:53:22;17.20;99.90
14739;DHT22;7461;52.440;13.540;2022-10-16T08:55:55;17.20;99.90
14739;DHT22;7461;52.440;13.540;2022-10-16T08:58:27;17.20;99.90
14739;DHT22;7461;52.440;13.540;2022-10-16T09:01:03;17.20;99.90
14739;DHT22;7461;52.440;13.540;2022-10-16T09:04:04;17.30;99.90
14739;DHT22;7461;52.440;13.540;2022-10-16T09:06:46;17.30;99.90
14739;DHT22;7461;52.440;13.540;2022-10-16T09:09:35;17.30;99.90
14739;DHT22;7461;52.440;13.540;2022-10-16T09:12:12;17.30;99.90
14739;DHT22;7461;52.440;13.540;2022-10-16T09:14:58;17.30;99.90
14739;DHT22;7461;52.440;13.540;2022-10-16T09:17:39;17.40;99.90
14739;DHT22;7461;52.440;13.540;2022-10-16T09:20:20;17.50;99.90
14739;DHT22;7461;52.440;13.540;2022-10-16T09:22:53;17.60;99.90
14739;DHT22;7461;52.440;13.540;2022-10-16T09:25:21;17.80;99.90
14739;DHT22;7461;52.440;13.540;2022-10-16T09:27:52;17.90;99.90
14739;DHT22;7461;52.440;13.540;2022-10-16T09:30:21;18.00;99.90
14739;DHT22;7461;52.440;13.540;2022-10-16T09:32:51;18.10;99.90
14739;DHT22;7461;52.440;13.540;2022-10-16T09:35:24;18.10;99.90
14739;DHT22;7461;52.440;13.540;2022-10-16T09:37:54;18.10;99.90
14739;DHT22;7461;52.440;13.540;2022-10-16T09:40:26;18.10;99.90
14739;DHT22;7461;52.440;13.540;2022-10-16T09:43:03;18.30;99.90
14739;DHT22;7461;52.440;13.540;2022-10-16T09:45:33;18.40;99.90
14739;DHT22;7461;52.440;13.540;2022-10-16T09:48:10;18.50;99.90
14739;DHT22;7461;52.440;13.540;2022-10-16T09:50:38;18.50;99.90
14739;DHT22;7461;52.440;13.540;2022-10-16T09:53:08;18.80;99.90
14739;DHT22;7461;52.440;13.540;2022-10-16T09:55:47;19.00;99.90
14739;DHT22;7461;52.440;13.540;2022-10-16T09:58:16;19.10;99.90
14739;DHT22;7461;52.440;13.540;2022-10-16T10:00:49;19.20;99.90
14739;DHT22;7461;52.440;13.540;2022-10-16T10:03:33;19.20;99.90
14739;DHT22;7461;52.440;13.540;2022-10-16T10:06:01;19.10;99.90
14739;DHT22;7461;52.440;13.540;2022-10-16T10:08:31;19.00;99.90
14739;DHT22;7461;52.440;13.540;2022-10-16T10:10:58;19.10;99.90
14739;DHT22;7461;52.440;13.540;2022-10-16T10:13:26;19.30;99.90
14739;DHT22;7461;52.440;13.540;2022-10-16T10:15:54;19.30;99.90
14739;DHT22;7461;52.440;13.540;2022-10-16T10:18:22;19.30;99.90
14739;DHT22;7461;52.440;13.540;2022-10-16T10:20:57;19.30;99.90
14739;DHT22;7461;52.440;13.540;2022-10-16T10:23:27;19.30;99.90
14739;DHT22;7461;52.440;13.540;2022-10-16T10:25:58;19.30;99.90
14739;DHT22;7461;52.440;13.540;2022-10-16T10:28:42;19.40;99.90
14739;DHT22;7461;52.440;13.540;2022-10-16T10:31:19;19.40;99.90
14739;DHT22;7461;52.440;13.540;2022-10-16T10:33:54;19.30;99.90
14739;DHT22;7461;52.440;13.540;2022-10-16T10:36:34;19.30;99.90
14739;DHT22;7461;52.440;13.540;2022-10-16T10:39:05;19.20;99.90
14739;DHT22;7461;52.440;13.540;2022-10-16T10:41:54;19.20;99.90
14739;DHT22;7461;52.440;13.540;2022-10-16T10:44:32;19.10;99.90
14739;DHT22;7461;52.440;13.540;2022-10-16T10:47:06;19.20;99.90
14739;DHT22;7461;52.440;13.540;2022-10-16T10:49:48;19.20;99.90
14739;DHT22;7461;52.440;13.540;2022-10-16T10:52:38;19.20;99.90
14739;DHT22;7461;52.440;13.540;2022-10-16T10:55:18;19.20;99.90
14739;DHT22;7461;52.440;13.540;2022-10-16T10:58:00;19.20;99.90
14739;DHT22;7461;52.440;13.540;2022-10-16T11:00:42;19.20;99.90
14739;DHT22;7461;52.440;13.540;2022-10-16T11:03:24;19.30;99.90
14739;DHT22;7461;52.440;13.540;2022-10-16T11:05:56;19.40;99.90
14739;DHT22;7461;52.440;13.540;2022-10-16T11:08:31;19.50;99.90
14739;DHT22;7461;52.440;13.540;2022-10-16T11:11:11;19.50;99.90
14739;DHT22;7461;52.440;13.540;2022-10-16T11:13:43;19.50;99.90
14739;DHT22;7461;52.440;13.540;2022-10-16T11:16:21;19.50;99.90
14739;DHT22;7461;52.440;13.540;2022-10-16T11:18:59;19.60;99.90
14739;DHT22;7461;52.440;13.540;2022-10-16T11:21:34;19.60;99.90
14739;DHT22;7461;52.440;13.540;2022-10-16T11:24:12;19.80;99.90
14739;DHT22;7461;52.440;13.540;2022-10-16T11:26:42;19.80;99.90
14739;DHT22;7461;52.440;13.540;2022-10-16T11:29:14;19.80;99.90
14739;DHT22;7461;52.440;13.540;2022-10-16T11:31:47;19.90;99.90
14739;DHT22;7461;52.440;13.540;2022-10-16T11:34:21;19.90;99.90
14739;DHT22;7461;52.440;13.540;2022-10-16T11:36:53;19.90;99.90
14739;DHT22;7461;52.440;13.540;2022-10-16T11:39:26;19.90;99.90
14739;DHT22;7461;52.440;13.540;2022-10-16T11:41:56;19.90;99.90
14739;DHT22;7461;52.440;13.540;2022-10-16T11:44:45;19.80;99.90
14739;DHT22;7461;52.440;13.540;2022-10-16T11:47:30;19.80;99.90
14739;DHT22;7461;52.440;13.540;2022-10-16T11:50:01;19.80;99.90
14739;DHT22;7461;52.440;13.540;2022-10-16T11:52:35;19.80;99.90
14739;DHT22;7461;52.440;13.540;2022-10-16T11:55:09;19.80;99.90
14739;DHT22;7461;52.440;13.540;2022-10-16T11:57:43;19.80;99.90
14739;DHT22;7461;52.440;13.540;2022-10-16T12:00:20;19.90;99.90
14739;DHT22;7461;52.440;13.540;2022-10-16T12:02:59;20.00;99.90
14739;DHT22;7461;52.440;13.540;2022-10-16T12:05:37;20.10;99.90
14739;DHT22;7461;52.440;13.540;2022-10-16T12:08:12;20.20;99.90
14739;DHT22;7461;52.440;13.540;2022-10-16T12:10:41;20.30;99.90
14739;DHT22;7461;52.440;13.540;2022-10-16T12:13:32;20.30;99.90
14739;DHT22;7461;52.440;13.540;2022-10-16T12:16:19;20.40;99.90
14739;DHT22;7461;52.440;13.540;2022-10-16T12:18:49;20.40;99.90
14739;DHT22;7461;52.440;13.540;2022-10-16T12:21:18;20.30;99.90
14739;DHT22;7461;52.440;13.540;2022-10-16T12:23:58;20.20;99.90
14739;DHT22;7461;52.440;13.540;2022-10-16T12:26:32;20.20;99.90
14739;DHT22;7461;52.440;13.540;2022-10-16T12:29:14;20.20;99.90
14739;DHT22;7461;52.440;13.540;2022-10-16T12:31:50;20.20;99.90
14739;DHT22;7461;52.440;13.540;2022-10-16T12:34:23;20.30;99.90
14739;DHT22;7461;52.440;13.540;2022-10-16T12:36:54;20.40;99.90
14739;DHT22;7461;52.440;13.540;2022-10-16T12:39:22;20.50;99.90
14739;DHT22;7461;52.440;13.540;2022-10-16T12:42:02;20.50;99.90
14739;DHT22;7461;52.440;13.540;2022-10-16T12:44:33;20.50;99.90
14739;DHT22;7461;52.440;13.540;2022-10-16T12:47:00;20.60;99.90
14739;DHT22;7461;52.440;13.540;2022-10-16T12:49:36;20.60;99.90
14739;DHT22;7461;52.440;13.540;2022-10-16T12:52:04;20.60;99.90
14739;DHT22;7461;52.440;13.540;2022-10-16T12:54:34;20.70;99.90
14739;DHT22;7461;52.440;13.540;2022-10-16T12:57:25;20.70;99.90
14739;DHT22;7461;52.440;13.540;2022-10-16T13:00:07;20.80;99.90
14739;DHT22;7461;52.440;13.540;2022-10-16T13:03:14;20.90;99.90
14739;DHT22;7461;52.440;13.540;2022-10-16T13:05:57;21.00;99.90
14739;DHT22;7461;52.440;13.540;2022-10-16T13:08:43;20.90;99.90
14739;DHT22;7461;52.440;13.540;2022-10-16T13:11:22;20.90;99.90
14739;DHT22;7461;52.440;13.540;2022-10-16T13:14:17;21.00;99.90
14739;DHT22;7461;52.440;13.540;2022-10-16T13:16:52;21.10;99.90
14739;DHT22;7461;52.440;13.540;2022-10-16T13:19:30;21.10;99.90
14739;DHT22;7461;52.440;13.540;2022-10-16T13:22:04;21.00;99.90
14739;DHT22;7461;52.440;13.540;2022-10-16T13:24:58;20.90;99.90
14739;DHT22;7461;52.440;13.540;2022-10-16T13:27:36;20.70;99.90
14739;DHT22;7461;52.440;13.540;2022-10-16T13:30:12;20.50;99.90
14739;DHT22;7461;52.440;13.540;2022-10-16T13:32:45;20.50;99.90
14739;DHT22;7461;52.440;13.540;2022-10-16T13:35:21;20.40;99.90
14739;DHT22;7461;52.440;13.540;2022-10-16T13:37:50;20.20;99.90
14739;DHT22;7461;52.440;13.540;2022-10-16T13:40:22;20.10;99.90
14739;DHT22;7461;52.440;13.540;2022-10-16T13:42:50;20.10;99.90
14739;DHT22;7461;52.440;13.540;2022-10-16T13:45:18;20.00;99.90
14739;DHT22;7461;52.440;13.540;2022-10-16T13:47:45;20.00;99.90
14739;DHT22;7461;52.440;13.540;2022-10-16T13:50:15;20.00;99.90
14739;DHT22;7461;52.440;13.540;2022-10-16T13:52:42;20.10;99.90
14739;DHT22;7461;52.440;13.540;2022-10-16T13:55:15;20.00;99.90
14739;DHT22;7461;52.440;13.540;2022-10-16T13:57:42;20.00;99.90
14739;DHT22;7461;52.440;13.540;2022-10-16T14:00:20;20.10;99.90
14739;DHT22;7461;52.440;13.540;2022-10-16T14:02:55;20.10;99.90
14739;DHT22;7461;52.440;13.540;2022-10-16T14:05:23;20.20;99.90
14739;DHT22;7461;52.440;13.540;2022-10-16T14:07:51;20.20;99.90
14739;DHT22;7461;52.440;13.540;2022-10-16T14:10:22;20.30;99.90
14739;DHT22;7461;52.440;13.540;2022-10-16T14:12:58;20.30;99.90
14739;DHT22;7461;52.440;13.540;2022-10-16T14:15:26;20.40;99.90
14739;DHT22;7461;52.440;13.540;2022-10-16T14:17:53;20.50;99.90
14739;DHT22;7461;52.440;13.540;2022-10-16T14:20:25;20.50;99.90
14739;DHT22;7461;52.440;13.540;2022-10-16T14:23:02;20.50;99.90
14739;DHT22;7461;52.440;13.540;2022-10-16T14:25:32;20.50;99.90
14739;DHT22;7461;52.440;13.540;2022-10-16T14:28:02;20.60;99.90
14739;DHT22;7461;52.440;13.540;2022-10-16T14:30:30;20.50;99.90
14739;DHT22;7461;52.440;13.540;2022-10-16T14:32:58;20.50;99.90
14739;DHT22;7461;52.440;13.540;2022-10-16T14:35:28;20.50;99.90
14739;DHT22;7461;52.440;13.540;2022-10-16T14:37:56;20.40;99.90
14739;DHT22;7461;52.440;13.540;2022-10-16T14:40:25;20.40;99.90
14739;DHT22;7461;52.440;13.540;2022-10-16T14:42:54;20.20;99.90
14739;DHT22;7461;52.440;13.540;2022-10-16T14:45:24;20.10;99.90
14739;DHT22;7461;52.440;13.540;2022-10-16T14:47:55;20.10;99.90
14739;DHT22;7461;52.440;13.540;2022-10-16T14:50:23;20.10;99.90
14739;DHT22;7461;52.440;13.540;2022-10-16T14:52:50;20.00;99.90
14739;DHT22;7461;52.440;13.540;2022-10-16T14:55:18;20.00;99.90
14739;DHT22;7461;52.440;13.540;2022-10-16T14:57:45;20.00;99.90
14739;DHT22;7461;52.440;13.540;2022-10-16T15:00:17;19.90;99.90
14739;DHT22;7461;52.440;13.540;2022-10-16T15:02:46;19.90;99.90
14739;DHT22;7461;52.440;13.540;2022-10-16T15:05:17;19.80;99.90
14739;DHT22;7461;52.440;13.540;2022-10-16T15:07:45;19.70;99.90
14739;DHT22;7461;52.440;13.540;2022-10-16T15:10:15;19.70;99.90
14739;DHT22;7461;52.440;13.540;2022-10-16T15:12:44;19.70;99.90
14739;DHT22;7461;52.440;13.540;2022-10-16T15:15:30;19.70;99.90
14739;DHT22;7461;52.440;13.540;2022-10-16T15:17:59;19.70;99.90
14739;DHT22;7461;52.440;13.540;2022-10-16T15:20:28;19.60;99.90
14739;DHT22;7461;52.440;13.540;2022-10-16T15:22:56;19.60;99.90
14739;DHT22;7461;52.440;13.540;2022-10-16T15:25:34;19.60;99.90
14739;DHT22;7461;52.440;13.540;2022-10-16T15:28:03;19.60;99.90
14739;DHT22;7461;52.440;13.540;2022-10-16T15:30:32;19.60;99.90
14739;DHT22;7461;52.440;13.540;2022-10-16T15:32:59;19.50;99.90
14739;DHT22;7461;52.440;13.540;2022-10-16T15:35:25;19.40;99.90
14739;DHT22;7461;52.440;13.540;2022-10-16T15:37:52;19.30;99.90
14739;DHT22;7461;52.440;13.540;2022-10-16T15:40:20;19.10;99.90
14739;DHT22;7461;52.440;13.540;2022-10-16T15:42:48;18.90;99.90
14739;DHT22;7461;52.440;13.540;2022-10-16T15:45:15;18.80;99.90
14739;DHT22;7461;52.440;13.540;2022-10-16T15:47:44;18.60;99.90
14739;DHT22;7461;52.440;13.540;2022-10-16T15:50:11;18.40;99.90
14739;DHT22;7461;52.440;13.540;2022-10-16T15:52:39;18.30;99.90
14739;DHT22;7461;52.440;13.540;2022-10-16T15:55:13;18.20;99.90